sensor_id;sensor_type;location;lat;lon;timestamp;P1;durP1;ratioP1;P2;durP2;ratioP2
40453;SDS011;26160;51.858;4.398;2023-08-24T00:00:47;5.28;;;2.45;;
40453;SDS011;26160;51.858;4.398;2023-08-24T00:03:13;7.68;;;2.88;;
40453;SDS011;26160;51.858;4.398;2023-08-24T00:05:40;5.68;;;2.63;;
40453;SDS011;26160;51.858;4.398;2023-08-24T00:08:06;4.60;;;2.35;;
40453;SDS011;26160;51.858;4.398;2023-08-24T00:10:37;6.05;;;2.63;;
40453;SDS011;26160;51.858;4.398;2023-08-24T00:13:03;5.68;;;3.53;;
40453;SDS011;26160;51.858;4.398;2023-08-24T00:15:30;7.03;;;3.00;;
40453;SDS011;26160;51.858;4.398;2023-08-24T00:17:56;7.40;;;3.60;;
40453;SDS011;26160;51.858;4.398;2023-08-24T00:20:22;8.65;;;3.58;;
40453;SDS011;26160;51.858;4.398;2023-08-24T00:22:48;6.65;;;3.05;;
40453;SDS011;26160;51.858;4.398;2023-08-24T00:25:15;6.82;;;3.55;;
40453;SDS011;26160;51.858;4.398;2023-08-24T00:27:41;6.88;;;3.83;;
40453;SDS011;26160;51.858;4.398;2023-08-24T00:30:07;6.85;;;3.30;;
40453;SDS011;26160;51.858;4.398;2023-08-24T00:32:34;6.90;;;3.83;;
40453;SDS011;26160;51.858;4.398;2023-08-24T00:35:07;4.10;;;2.60;;
40453;SDS011;26160;51.858;4.398;2023-08-24T00:37:35;5.55;;;3.63;;
40453;SDS011;26160;51.858;4.398;2023-08-24T00:40:05;8.90;;;4.07;;
40453;SDS011;26160;51.858;4.398;2023-08-24T00:42:38;6.20;;;3.28;;
40453;SDS011;26160;51.858;4.398;2023-08-24T00:45:06;6.82;;;3.63;;
40453;SDS011;26160;51.858;4.398;2023-08-24T00:47:35;7.10;;;3.83;;
40453;SDS011;26160;51.858;4.398;2023-08-24T00:50:08;5.05;;;3.65;;
40453;SDS011;26160;51.858;4.398;2023-08-24T00:52:38;7.53;;;4.03;;
40453;SDS011;26160;51.858;4.398;2023-08-24T00:55:07;7.15;;;3.55;;
40453;SDS011;26160;51.858;4.398;2023-08-24T00:57:37;6.72;;;3.95;;
40453;SDS011;26160;51.858;4.398;2023-08-24T01:00:07;6.50;;;4.20;;
40453;SDS011;26160;51.858;4.398;2023-08-24T01:02:36;4.97;;;3.70;;
40453;SDS011;26160;51.858;4.398;2023-08-24T01:05:03;8.75;;;4.53;;
40453;SDS011;26160;51.858;4.398;2023-08-24T01:07:33;6.00;;;3.70;;
40453;SDS011;26160;51.858;4.398;2023-08-24T01:10:02;6.55;;;4.57;;
40453;SDS011;26160;51.858;4.398;2023-08-24T01:12:38;7.53;;;3.95;;
40453;SDS011;26160;51.858;4.398;2023-08-24T01:15:18;8.45;;;3.92;;
40453;SDS011;26160;51.858;4.398;2023-08-24T01:17:49;5.13;;;3.58;;
40453;SDS011;26160;51.858;4.398;2023-08-24T01:20:17;5.30;;;3.45;;
40453;SDS011;26160;51.858;4.398;2023-08-24T01:25:46;6.97;;;4.60;;
40453;SDS011;26160;51.858;4.398;2023-08-24T01:28:18;10.88;;;4.70;;
40453;SDS011;26160;51.858;4.398;2023-08-24T01:30:46;8.52;;;4.57;;
40453;SDS011;26160;51.858;4.398;2023-08-24T01:33:13;11.43;;;4.45;;
40453;SDS011;26160;51.858;4.398;2023-08-24T01:35:40;4.93;;;3.95;;
40453;SDS011;26160;51.858;4.398;2023-08-24T01:38:06;4.78;;;3.80;;
40453;SDS011;26160;51.858;4.398;2023-08-24T01:40:40;7.15;;;4.07;;
40453;SDS011;26160;51.858;4.398;2023-08-24T01:43:10;5.90;;;3.90;;
40453;SDS011;26160;51.858;4.398;2023-08-24T01:45:39;7.38;;;3.72;;
40453;SDS011;26160;51.858;4.398;2023-08-24T01:48:07;7.82;;;3.70;;
40453;SDS011;26160;51.858;4.398;2023-08-24T01:50:35;7.75;;;4.60;;
40453;SDS011;26160;51.858;4.398;2023-08-24T01:53:02;7.65;;;3.78;;
40453;SDS011;26160;51.858;4.398;2023-08-24T01:55:29;8.93;;;4.53;;
40453;SDS011;26160;51.858;4.398;2023-08-24T01:57:56;8.52;;;5.22;;
40453;SDS011;26160;51.858;4.398;2023-08-24T02:00:22;8.40;;;5.25;;
40453;SDS011;26160;51.858;4.398;2023-08-24T02:02:49;9.73;;;5.70;;
40453;SDS011;26160;51.858;4.398;2023-08-24T02:05:15;7.72;;;6.05;;
40453;SDS011;26160;51.858;4.398;2023-08-24T02:07:41;11.00;;;5.85;;
40453;SDS011;26160;51.858;4.398;2023-08-24T02:10:07;9.40;;;6.95;;
40453;SDS011;26160;51.858;4.398;2023-08-24T02:12:33;14.40;;;6.88;;
40453;SDS011;26160;51.858;4.398;2023-08-24T02:14:59;7.93;;;5.78;;
40453;SDS011;26160;51.858;4.398;2023-08-24T02:17:26;8.05;;;5.43;;
40453;SDS011;26160;51.858;4.398;2023-08-24T02:19:52;12.68;;;7.13;;
40453;SDS011;26160;51.858;4.398;2023-08-24T02:22:18;8.00;;;5.95;;
40453;SDS011;26160;51.858;4.398;2023-08-24T02:24:44;11.32;;;6.95;;
40453;SDS011;26160;51.858;4.398;2023-08-24T02:27:11;10.10;;;7.40;;
40453;SDS011;26160;51.858;4.398;2023-08-24T02:29:38;8.43;;;6.13;;
40453;SDS011;26160;51.858;4.398;2023-08-24T02:32:04;7.80;;;6.55;;
40453;SDS011;26160;51.858;4.398;2023-08-24T02:34:30;11.23;;;7.35;;
40453;SDS011;26160;51.858;4.398;2023-08-24T02:36:57;12.23;;;6.47;;
40453;SDS011;26160;51.858;4.398;2023-08-24T02:39:23;10.18;;;7.43;;
40453;SDS011;26160;51.858;4.398;2023-08-24T02:41:49;12.95;;;7.60;;
40453;SDS011;26160;51.858;4.398;2023-08-24T02:44:15;11.60;;;6.90;;
40453;SDS011;26160;51.858;4.398;2023-08-24T02:46:47;10.68;;;6.82;;
40453;SDS011;26160;51.858;4.398;2023-08-24T02:51:40;10.70;;;6.60;;
40453;SDS011;26160;51.858;4.398;2023-08-24T02:54:06;8.77;;;6.68;;
40453;SDS011;26160;51.858;4.398;2023-08-24T02:56:32;9.60;;;6.20;;
40453;SDS011;26160;51.858;4.398;2023-08-24T02:58:58;12.30;;;7.25;;
40453;SDS011;26160;51.858;4.398;2023-08-24T03:01:24;10.23;;;7.13;;
40453;SDS011;26160;51.858;4.398;2023-08-24T03:03:52;9.10;;;6.95;;
40453;SDS011;26160;51.858;4.398;2023-08-24T03:06:18;7.97;;;6.30;;
40453;SDS011;26160;51.858;4.398;2023-08-24T03:08:44;8.30;;;6.45;;
40453;SDS011;26160;51.858;4.398;2023-08-24T03:11:10;10.80;;;7.28;;
40453;SDS011;26160;51.858;4.398;2023-08-24T03:13:36;9.10;;;7.15;;
40453;SDS011;26160;51.858;4.398;2023-08-24T03:16:06;9.73;;;7.15;;
40453;SDS011;26160;51.858;4.398;2023-08-24T03:18:34;9.63;;;6.95;;
40453;SDS011;26160;51.858;4.398;2023-08-24T03:21:00;14.18;;;7.22;;
40453;SDS011;26160;51.858;4.398;2023-08-24T03:23:27;7.80;;;6.15;;
40453;SDS011;26160;51.858;4.398;2023-08-24T03:25:55;8.10;;;6.72;;
40453;SDS011;26160;51.858;4.398;2023-08-24T03:28:22;10.93;;;7.10;;
40453;SDS011;26160;51.858;4.398;2023-08-24T03:30:50;7.10;;;6.40;;
40453;SDS011;26160;51.858;4.398;2023-08-24T03:33:17;8.88;;;7.90;;
40453;SDS011;26160;51.858;4.398;2023-08-24T03:35:44;8.88;;;7.00;;
40453;SDS011;26160;51.858;4.398;2023-08-24T03:38:11;10.80;;;7.13;;
40453;SDS011;26160;51.858;4.398;2023-08-24T03:40:37;10.63;;;6.32;;
40453;SDS011;26160;51.858;4.398;2023-08-24T03:43:03;9.65;;;7.13;;
40453;SDS011;26160;51.858;4.398;2023-08-24T03:45:29;9.88;;;6.40;;
40453;SDS011;26160;51.858;4.398;2023-08-24T03:47:56;12.68;;;7.45;;
40453;SDS011;26160;51.858;4.398;2023-08-24T03:50:22;11.55;;;8.10;;
40453;SDS011;26160;51.858;4.398;2023-08-24T03:52:50;8.43;;;6.80;;
40453;SDS011;26160;51.858;4.398;2023-08-24T03:55:16;11.73;;;7.85;;
40453;SDS011;26160;51.858;4.398;2023-08-24T03:57:42;9.85;;;6.93;;
40453;SDS011;26160;51.858;4.398;2023-08-24T04:00:09;11.75;;;7.80;;
40453;SDS011;26160;51.858;4.398;2023-08-24T04:02:40;10.60;;;6.82;;
40453;SDS011;26160;51.858;4.398;2023-08-24T04:05:06;8.73;;;6.82;;
40453;SDS011;26160;51.858;4.398;2023-08-24T04:07:33;9.40;;;6.95;;
40453;SDS011;26160;51.858;4.398;2023-08-24T04:10:02;8.95;;;7.57;;
40453;SDS011;26160;51.858;4.398;2023-08-24T04:12:30;8.65;;;6.93;;
40453;SDS011;26160;51.858;4.398;2023-08-24T04:14:57;10.25;;;7.63;;
40453;SDS011;26160;51.858;4.398;2023-08-24T04:17:23;10.10;;;8.10;;
40453;SDS011;26160;51.858;4.398;2023-08-24T04:19:50;8.88;;;7.05;;
40453;SDS011;26160;51.858;4.398;2023-08-24T04:22:16;9.40;;;6.50;;
40453;SDS011;26160;51.858;4.398;2023-08-24T04:24:42;10.75;;;7.22;;
40453;SDS011;26160;51.858;4.398;2023-08-24T04:27:08;10.52;;;7.78;;
40453;SDS011;26160;51.858;4.398;2023-08-24T04:29:34;9.82;;;7.30;;
40453;SDS011;26160;51.858;4.398;2023-08-24T04:32:01;13.32;;;8.40;;
40453;SDS011;26160;51.858;4.398;2023-08-24T04:34:27;13.82;;;7.90;;
40453;SDS011;26160;51.858;4.398;2023-08-24T04:36:53;9.55;;;7.45;;
40453;SDS011;26160;51.858;4.398;2023-08-24T04:39:20;13.40;;;8.88;;
40453;SDS011;26160;51.858;4.398;2023-08-24T04:41:46;11.73;;;7.82;;
40453;SDS011;26160;51.858;4.398;2023-08-24T04:44:12;12.00;;;8.30;;
40453;SDS011;26160;51.858;4.398;2023-08-24T04:46:38;9.18;;;7.40;;
40453;SDS011;26160;51.858;4.398;2023-08-24T04:49:04;15.30;;;8.55;;
40453;SDS011;26160;51.858;4.398;2023-08-24T04:51:30;11.52;;;8.13;;
40453;SDS011;26160;51.858;4.398;2023-08-24T04:53:57;14.35;;;8.63;;
40453;SDS011;26160;51.858;4.398;2023-08-24T04:56:23;12.57;;;9.15;;
40453;SDS011;26160;51.858;4.398;2023-08-24T04:58:52;15.23;;;9.35;;
40453;SDS011;26160;51.858;4.398;2023-08-24T05:01:20;11.07;;;9.75;;
40453;SDS011;26160;51.858;4.398;2023-08-24T05:03:48;14.13;;;9.85;;
40453;SDS011;26160;51.858;4.398;2023-08-24T05:06:15;10.07;;;8.70;;
40453;SDS011;26160;51.858;4.398;2023-08-24T05:08:41;14.52;;;9.68;;
40453;SDS011;26160;51.858;4.398;2023-08-24T05:11:14;12.32;;;9.27;;
40453;SDS011;26160;51.858;4.398;2023-08-24T05:13:42;12.98;;;10.00;;
40453;SDS011;26160;51.858;4.398;2023-08-24T05:16:09;13.93;;;10.85;;
40453;SDS011;26160;51.858;4.398;2023-08-24T05:18:36;16.63;;;11.40;;
40453;SDS011;26160;51.858;4.398;2023-08-24T05:21:02;12.20;;;10.52;;
40453;SDS011;26160;51.858;4.398;2023-08-24T05:23:29;15.60;;;12.52;;
40453;SDS011;26160;51.858;4.398;2023-08-24T05:25:57;20.67;;;12.90;;
40453;SDS011;26160;51.858;4.398;2023-08-24T05:28:24;15.23;;;11.88;;
40453;SDS011;26160;51.858;4.398;2023-08-24T05:30:51;20.75;;;13.30;;
40453;SDS011;26160;51.858;4.398;2023-08-24T05:33:18;16.77;;;11.10;;
40453;SDS011;26160;51.858;4.398;2023-08-24T05:35:45;17.90;;;13.13;;
40453;SDS011;26160;51.858;4.398;2023-08-24T05:38:12;14.73;;;11.32;;
40453;SDS011;26160;51.858;4.398;2023-08-24T05:40:39;18.88;;;13.00;;
40453;SDS011;26160;51.858;4.398;2023-08-24T05:43:10;16.35;;;13.50;;
40453;SDS011;26160;51.858;4.398;2023-08-24T05:45:36;19.05;;;14.23;;
40453;SDS011;26160;51.858;4.398;2023-08-24T05:48:05;17.73;;;14.98;;
40453;SDS011;26160;51.858;4.398;2023-08-24T05:50:31;20.30;;;14.48;;
40453;SDS011;26160;51.858;4.398;2023-08-24T05:52:58;19.48;;;15.52;;
40453;SDS011;26160;51.858;4.398;2023-08-24T05:55:24;23.13;;;17.20;;
40453;SDS011;26160;51.858;4.398;2023-08-24T05:57:50;22.98;;;16.38;;
40453;SDS011;26160;51.858;4.398;2023-08-24T06:00:16;21.88;;;16.77;;
40453;SDS011;26160;51.858;4.398;2023-08-24T06:02:43;19.25;;;14.65;;
40453;SDS011;26160;51.858;4.398;2023-08-24T06:05:09;20.85;;;16.30;;
40453;SDS011;26160;51.858;4.398;2023-08-24T06:07:36;19.83;;;14.88;;
40453;SDS011;26160;51.858;4.398;2023-08-24T06:10:03;26.20;;;16.33;;
40453;SDS011;26160;51.858;4.398;2023-08-24T06:12:29;23.38;;;16.50;;
40453;SDS011;26160;51.858;4.398;2023-08-24T06:14:55;23.80;;;16.77;;
40453;SDS011;26160;51.858;4.398;2023-08-24T06:17:21;22.02;;;14.88;;
40453;SDS011;26160;51.858;4.398;2023-08-24T06:19:47;21.73;;;16.13;;
40453;SDS011;26160;51.858;4.398;2023-08-24T06:22:13;22.30;;;16.35;;
40453;SDS011;26160;51.858;4.398;2023-08-24T06:24:40;22.10;;;16.13;;
40453;SDS011;26160;51.858;4.398;2023-08-24T06:27:06;19.08;;;14.07;;
40453;SDS011;26160;51.858;4.398;2023-08-24T06:29:32;20.13;;;15.23;;
40453;SDS011;26160;51.858;4.398;2023-08-24T06:31:58;22.33;;;15.32;;
40453;SDS011;26160;51.858;4.398;2023-08-24T06:34:24;23.48;;;15.73;;
40453;SDS011;26160;51.858;4.398;2023-08-24T06:36:50;20.98;;;13.10;;
40453;SDS011;26160;51.858;4.398;2023-08-24T06:39:18;22.95;;;15.68;;
40453;SDS011;26160;51.858;4.398;2023-08-24T06:41:44;18.23;;;13.93;;
40453;SDS011;26160;51.858;4.398;2023-08-24T06:44:11;17.08;;;15.27;;
40453;SDS011;26160;51.858;4.398;2023-08-24T06:46:37;18.95;;;14.52;;
40453;SDS011;26160;51.858;4.398;2023-08-24T06:49:03;21.15;;;14.57;;
40453;SDS011;26160;51.858;4.398;2023-08-24T06:51:29;22.23;;;15.05;;
40453;SDS011;26160;51.858;4.398;2023-08-24T06:53:55;21.77;;;15.00;;
40453;SDS011;26160;51.858;4.398;2023-08-24T06:56:21;15.65;;;12.20;;
40453;SDS011;26160;51.858;4.398;2023-08-24T06:58:48;21.33;;;15.25;;
40453;SDS011;26160;51.858;4.398;2023-08-24T07:01:14;18.20;;;14.73;;
40453;SDS011;26160;51.858;4.398;2023-08-24T07:03:41;22.33;;;15.38;;
40453;SDS011;26160;51.858;4.398;2023-08-24T07:06:07;27.33;;;15.48;;
40453;SDS011;26160;51.858;4.398;2023-08-24T07:08:34;20.20;;;14.90;;
40453;SDS011;26160;51.858;4.398;2023-08-24T07:11:01;17.67;;;14.13;;
40453;SDS011;26160;51.858;4.398;2023-08-24T07:13:27;17.95;;;13.90;;
40453;SDS011;26160;51.858;4.398;2023-08-24T07:15:54;19.40;;;14.55;;
40453;SDS011;26160;51.858;4.398;2023-08-24T07:18:21;20.70;;;14.25;;
40453;SDS011;26160;51.858;4.398;2023-08-24T07:20:47;17.40;;;13.32;;
40453;SDS011;26160;51.858;4.398;2023-08-24T07:23:13;18.15;;;14.02;;
40453;SDS011;26160;51.858;4.398;2023-08-24T07:25:39;18.75;;;13.45;;
40453;SDS011;26160;51.858;4.398;2023-08-24T07:28:06;19.27;;;13.93;;
40453;SDS011;26160;51.858;4.398;2023-08-24T07:30:34;19.58;;;14.00;;
40453;SDS011;26160;51.858;4.398;2023-08-24T07:33:01;18.40;;;12.43;;
40453;SDS011;26160;51.858;4.398;2023-08-24T07:35:31;21.20;;;13.65;;
40453;SDS011;26160;51.858;4.398;2023-08-24T07:37:57;19.75;;;13.57;;
40453;SDS011;26160;51.858;4.398;2023-08-24T07:40:24;17.85;;;12.43;;
40453;SDS011;26160;51.858;4.398;2023-08-24T07:42:51;17.20;;;11.43;;
40453;SDS011;26160;51.858;4.398;2023-08-24T07:45:20;16.42;;;11.98;;
40453;SDS011;26160;51.858;4.398;2023-08-24T07:47:46;16.70;;;10.75;;
40453;SDS011;26160;51.858;4.398;2023-08-24T07:50:15;16.25;;;12.27;;
40453;SDS011;26160;51.858;4.398;2023-08-24T07:52:42;21.17;;;12.77;;
40453;SDS011;26160;51.858;4.398;2023-08-24T07:55:08;15.38;;;12.20;;
40453;SDS011;26160;51.858;4.398;2023-08-24T07:57:35;17.10;;;11.48;;
40453;SDS011;26160;51.858;4.398;2023-08-24T08:00:03;17.20;;;11.23;;
40453;SDS011;26160;51.858;4.398;2023-08-24T08:02:30;14.10;;;11.38;;
40453;SDS011;26160;51.858;4.398;2023-08-24T08:04:58;15.23;;;12.23;;
40453;SDS011;26160;51.858;4.398;2023-08-24T08:07:25;14.02;;;11.98;;
40453;SDS011;26160;51.858;4.398;2023-08-24T08:09:52;15.48;;;10.77;;
40453;SDS011;26160;51.858;4.398;2023-08-24T08:12:18;17.23;;;11.40;;
40453;SDS011;26160;51.858;4.398;2023-08-24T08:14:44;16.38;;;11.40;;
40453;SDS011;26160;51.858;4.398;2023-08-24T08:17:10;14.57;;;11.38;;
40453;SDS011;26160;51.858;4.398;2023-08-24T08:19:36;15.32;;;12.52;;
40453;SDS011;26160;51.858;4.398;2023-08-24T08:22:03;14.70;;;11.70;;
40453;SDS011;26160;51.858;4.398;2023-08-24T08:24:30;13.25;;;11.52;;
40453;SDS011;26160;51.858;4.398;2023-08-24T08:26:56;19.85;;;13.45;;
40453;SDS011;26160;51.858;4.398;2023-08-24T08:29:22;14.38;;;11.80;;
40453;SDS011;26160;51.858;4.398;2023-08-24T08:31:48;14.93;;;11.52;;
40453;SDS011;26160;51.858;4.398;2023-08-24T08:34:14;15.00;;;11.40;;
40453;SDS011;26160;51.858;4.398;2023-08-24T08:36:41;14.48;;;11.13;;
40453;SDS011;26160;51.858;4.398;2023-08-24T08:39:07;20.50;;;13.40;;
40453;SDS011;26160;51.858;4.398;2023-08-24T08:41:35;17.45;;;12.90;;
40453;SDS011;26160;51.858;4.398;2023-08-24T08:44:05;13.95;;;11.30;;
40453;SDS011;26160;51.858;4.398;2023-08-24T08:46:32;17.30;;;12.48;;
40453;SDS011;26160;51.858;4.398;2023-08-24T08:49:00;19.95;;;12.88;;
40453;SDS011;26160;51.858;4.398;2023-08-24T08:51:29;16.50;;;11.88;;
40453;SDS011;26160;51.858;4.398;2023-08-24T08:53:56;19.88;;;13.20;;
40453;SDS011;26160;51.858;4.398;2023-08-24T08:56:22;15.23;;;10.25;;
40453;SDS011;26160;51.858;4.398;2023-08-24T08:58:49;20.80;;;12.48;;
40453;SDS011;26160;51.858;4.398;2023-08-24T09:01:16;16.02;;;11.82;;
40453;SDS011;26160;51.858;4.398;2023-08-24T09:03:43;18.75;;;12.32;;
40453;SDS011;26160;51.858;4.398;2023-08-24T09:06:10;12.93;;;9.88;;
40453;SDS011;26160;51.858;4.398;2023-08-24T09:08:36;12.90;;;9.43;;
40453;SDS011;26160;51.858;4.398;2023-08-24T09:11:03;15.27;;;11.57;;
40453;SDS011;26160;51.858;4.398;2023-08-24T09:13:29;17.98;;;12.70;;
40453;SDS011;26160;51.858;4.398;2023-08-24T09:16:07;19.40;;;12.85;;
40453;SDS011;26160;51.858;4.398;2023-08-24T09:18:37;15.00;;;11.82;;
40453;SDS011;26160;51.858;4.398;2023-08-24T09:21:08;18.10;;;13.07;;
40453;SDS011;26160;51.858;4.398;2023-08-24T09:23:35;16.20;;;12.27;;
40453;SDS011;26160;51.858;4.398;2023-08-24T09:26:01;14.40;;;11.10;;
40453;SDS011;26160;51.858;4.398;2023-08-24T09:28:27;15.32;;;11.60;;
40453;SDS011;26160;51.858;4.398;2023-08-24T09:30:53;17.98;;;11.73;;
40453;SDS011;26160;51.858;4.398;2023-08-24T09:33:20;14.50;;;11.10;;
40453;SDS011;26160;51.858;4.398;2023-08-24T09:35:54;12.52;;;10.23;;
40453;SDS011;26160;51.858;4.398;2023-08-24T09:38:26;13.38;;;11.07;;
40453;SDS011;26160;51.858;4.398;2023-08-24T09:40:54;16.92;;;12.68;;
40453;SDS011;26160;51.858;4.398;2023-08-24T09:43:21;17.42;;;12.77;;
40453;SDS011;26160;51.858;4.398;2023-08-24T09:45:49;14.35;;;12.50;;
40453;SDS011;26160;51.858;4.398;2023-08-24T09:48:16;19.02;;;13.95;;
40453;SDS011;26160;51.858;4.398;2023-08-24T09:50:43;13.15;;;11.75;;
40453;SDS011;26160;51.858;4.398;2023-08-24T09:53:13;12.18;;;10.80;;
40453;SDS011;26160;51.858;4.398;2023-08-24T09:55:49;16.23;;;11.32;;
40453;SDS011;26160;51.858;4.398;2023-08-24T09:58:28;16.00;;;13.48;;
40453;SDS011;26160;51.858;4.398;2023-08-24T10:00:55;17.02;;;13.30;;
40453;SDS011;26160;51.858;4.398;2023-08-24T10:03:25;15.65;;;12.80;;
40453;SDS011;26160;51.858;4.398;2023-08-24T10:05:52;16.73;;;12.60;;
40453;SDS011;26160;51.858;4.398;2023-08-24T10:08:21;19.80;;;13.15;;
40453;SDS011;26160;51.858;4.398;2023-08-24T10:10:52;18.75;;;12.55;;
40453;SDS011;26160;51.858;4.398;2023-08-24T10:13:23;15.82;;;12.48;;
40453;SDS011;26160;51.858;4.398;2023-08-24T10:15:55;14.93;;;12.10;;
40453;SDS011;26160;51.858;4.398;2023-08-24T10:18:23;19.13;;;14.13;;
40453;SDS011;26160;51.858;4.398;2023-08-24T10:20:49;15.77;;;13.85;;
40453;SDS011;26160;51.858;4.398;2023-08-24T10:23:16;18.02;;;14.98;;
40453;SDS011;26160;51.858;4.398;2023-08-24T10:25:45;18.40;;;15.07;;
40453;SDS011;26160;51.858;4.398;2023-08-24T10:28:13;21.52;;;15.32;;
40453;SDS011;26160;51.858;4.398;2023-08-24T10:30:42;24.17;;;16.60;;
40453;SDS011;26160;51.858;4.398;2023-08-24T10:33:10;20.55;;;16.58;;
40453;SDS011;26160;51.858;4.398;2023-08-24T10:35:39;21.85;;;17.33;;
40453;SDS011;26160;51.858;4.398;2023-08-24T10:38:06;21.23;;;15.82;;
40453;SDS011;26160;51.858;4.398;2023-08-24T10:40:33;19.15;;;15.70;;
40453;SDS011;26160;51.858;4.398;2023-08-24T10:43:04;19.88;;;15.30;;
40453;SDS011;26160;51.858;4.398;2023-08-24T10:48:19;20.15;;;15.38;;
40453;SDS011;26160;51.858;4.398;2023-08-24T10:51:15;24.63;;;16.55;;
40453;SDS011;26160;51.858;4.398;2023-08-24T10:53:46;24.83;;;15.77;;
40453;SDS011;26160;51.858;4.398;2023-08-24T10:56:13;19.90;;;15.20;;
40453;SDS011;26160;51.858;4.398;2023-08-24T10:58:43;21.60;;;16.13;;
40453;SDS011;26160;51.858;4.398;2023-08-24T11:01:17;16.23;;;13.55;;
40453;SDS011;26160;51.858;4.398;2023-08-24T11:03:50;24.08;;;16.25;;
40453;SDS011;26160;51.858;4.398;2023-08-24T11:06:23;17.67;;;14.60;;
40453;SDS011;26160;51.858;4.398;2023-08-24T11:09:05;15.13;;;13.13;;
40453;SDS011;26160;51.858;4.398;2023-08-24T11:11:32;18.52;;;13.75;;
40453;SDS011;26160;51.858;4.398;2023-08-24T11:16:48;18.50;;;14.00;;
40453;SDS011;26160;51.858;4.398;2023-08-24T11:19:15;14.77;;;11.45;;
40453;SDS011;26160;51.858;4.398;2023-08-24T11:21:42;16.60;;;12.32;;
40453;SDS011;26160;51.858;4.398;2023-08-24T11:24:14;18.75;;;12.73;;
40453;SDS011;26160;51.858;4.398;2023-08-24T11:26:48;14.25;;;12.10;;
40453;SDS011;26160;51.858;4.398;2023-08-24T11:29:15;15.98;;;13.18;;
40453;SDS011;26160;51.858;4.398;2023-08-24T11:31:43;17.08;;;12.75;;
40453;SDS011;26160;51.858;4.398;2023-08-24T11:34:09;11.68;;;10.48;;
40453;SDS011;26160;51.858;4.398;2023-08-24T11:36:43;19.15;;;13.23;;
40453;SDS011;26160;51.858;4.398;2023-08-24T11:39:18;13.07;;;11.13;;
40453;SDS011;26160;51.858;4.398;2023-08-24T11:42:04;14.40;;;10.15;;
40453;SDS011;26160;51.858;4.398;2023-08-24T11:44:47;16.67;;;12.70;;
40453;SDS011;26160;51.858;4.398;2023-08-24T11:47:14;16.52;;;12.57;;
40453;SDS011;26160;51.858;4.398;2023-08-24T11:49:41;15.45;;;11.50;;
40453;SDS011;26160;51.858;4.398;2023-08-24T11:52:08;14.23;;;10.63;;
40453;SDS011;26160;51.858;4.398;2023-08-24T11:54:35;14.75;;;11.48;;
40453;SDS011;26160;51.858;4.398;2023-08-24T11:57:07;16.50;;;12.57;;
40453;SDS011;26160;51.858;4.398;2023-08-24T11:59:34;14.80;;;10.60;;
40453;SDS011;26160;51.858;4.398;2023-08-24T12:02:01;16.17;;;10.63;;
40453;SDS011;26160;51.858;4.398;2023-08-24T12:04:37;14.07;;;10.02;;
40453;SDS011;26160;51.858;4.398;2023-08-24T12:07:12;17.15;;;10.95;;
40453;SDS011;26160;51.858;4.398;2023-08-24T12:09:41;15.15;;;10.98;;
40453;SDS011;26160;51.858;4.398;2023-08-24T12:12:14;12.80;;;8.63;;
40453;SDS011;26160;51.858;4.398;2023-08-24T12:14:41;13.15;;;9.85;;
40453;SDS011;26160;51.858;4.398;2023-08-24T12:17:11;15.57;;;11.13;;
40453;SDS011;26160;51.858;4.398;2023-08-24T12:19:42;14.07;;;9.25;;
40453;SDS011;26160;51.858;4.398;2023-08-24T12:22:16;16.55;;;10.82;;
40453;SDS011;26160;51.858;4.398;2023-08-24T12:24:46;15.57;;;10.95;;
40453;SDS011;26160;51.858;4.398;2023-08-24T12:29:54;16.75;;;10.10;;
40453;SDS011;26160;51.858;4.398;2023-08-24T12:32:20;12.48;;;10.73;;
40453;SDS011;26160;51.858;4.398;2023-08-24T12:34:49;11.32;;;10.00;;
40453;SDS011;26160;51.858;4.398;2023-08-24T12:37:17;14.32;;;10.93;;
40453;SDS011;26160;51.858;4.398;2023-08-24T12:39:43;19.35;;;11.70;;
40453;SDS011;26160;51.858;4.398;2023-08-24T12:42:09;11.00;;;9.60;;
40453;SDS011;26160;51.858;4.398;2023-08-24T12:44:35;13.43;;;9.88;;
40453;SDS011;26160;51.858;4.398;2023-08-24T12:47:02;14.32;;;10.85;;
40453;SDS011;26160;51.858;4.398;2023-08-24T12:49:29;16.35;;;12.70;;
40453;SDS011;26160;51.858;4.398;2023-08-24T12:51:55;17.15;;;12.48;;
40453;SDS011;26160;51.858;4.398;2023-08-24T12:54:21;17.88;;;12.98;;
40453;SDS011;26160;51.858;4.398;2023-08-24T12:56:47;14.60;;;11.13;;
40453;SDS011;26160;51.858;4.398;2023-08-24T12:59:13;17.77;;;12.43;;
40453;SDS011;26160;51.858;4.398;2023-08-24T13:01:39;13.73;;;10.63;;
40453;SDS011;26160;51.858;4.398;2023-08-24T13:04:05;13.43;;;9.75;;
40453;SDS011;26160;51.858;4.398;2023-08-24T13:06:32;13.45;;;9.38;;
40453;SDS011;26160;51.858;4.398;2023-08-24T13:08:58;16.17;;;9.88;;
40453;SDS011;26160;51.858;4.398;2023-08-24T13:11:24;16.30;;;9.85;;
40453;SDS011;26160;51.858;4.398;2023-08-24T13:13:51;16.13;;;10.48;;
40453;SDS011;26160;51.858;4.398;2023-08-24T13:16:17;13.57;;;10.52;;
40453;SDS011;26160;51.858;4.398;2023-08-24T13:18:43;21.52;;;11.30;;
40453;SDS011;26160;51.858;4.398;2023-08-24T13:21:09;14.98;;;11.15;;
40453;SDS011;26160;51.858;4.398;2023-08-24T13:23:35;16.92;;;10.70;;
40453;SDS011;26160;51.858;4.398;2023-08-24T13:26:01;15.75;;;11.43;;
40453;SDS011;26160;51.858;4.398;2023-08-24T13:28:27;19.67;;;12.57;;
40453;SDS011;26160;51.858;4.398;2023-08-24T13:30:55;14.32;;;11.70;;
40453;SDS011;26160;51.858;4.398;2023-08-24T13:33:21;16.50;;;12.18;;
40453;SDS011;26160;51.858;4.398;2023-08-24T13:35:47;17.58;;;12.52;;
40453;SDS011;26160;51.858;4.398;2023-08-24T13:38:15;15.68;;;12.20;;
40453;SDS011;26160;51.858;4.398;2023-08-24T13:40:41;18.95;;;12.52;;
40453;SDS011;26160;51.858;4.398;2023-08-24T13:43:07;19.13;;;13.27;;
40453;SDS011;26160;51.858;4.398;2023-08-24T13:45:33;18.40;;;11.75;;
40453;SDS011;26160;51.858;4.398;2023-08-24T13:48:00;17.48;;;12.57;;
40453;SDS011;26160;51.858;4.398;2023-08-24T13:50:26;14.07;;;10.85;;
40453;SDS011;26160;51.858;4.398;2023-08-24T13:52:52;13.43;;;10.85;;
40453;SDS011;26160;51.858;4.398;2023-08-24T13:55:18;16.48;;;11.45;;
40453;SDS011;26160;51.858;4.398;2023-08-24T13:57:44;16.95;;;11.90;;
40453;SDS011;26160;51.858;4.398;2023-08-24T14:00:11;14.93;;;10.88;;
40453;SDS011;26160;51.858;4.398;2023-08-24T14:02:37;14.45;;;10.07;;
40453;SDS011;26160;51.858;4.398;2023-08-24T14:05:04;15.35;;;11.48;;
40453;SDS011;26160;51.858;4.398;2023-08-24T14:07:34;18.30;;;11.32;;
40453;SDS011;26160;51.858;4.398;2023-08-24T14:10:01;14.52;;;9.80;;
40453;SDS011;26160;51.858;4.398;2023-08-24T14:12:28;14.57;;;10.38;;
40453;SDS011;26160;51.858;4.398;2023-08-24T14:14:56;12.20;;;9.05;;
40453;SDS011;26160;51.858;4.398;2023-08-24T14:17:22;13.82;;;9.90;;
40453;SDS011;26160;51.858;4.398;2023-08-24T14:19:48;17.23;;;11.57;;
40453;SDS011;26160;51.858;4.398;2023-08-24T14:22:14;14.82;;;9.98;;
40453;SDS011;26160;51.858;4.398;2023-08-24T14:24:40;14.18;;;9.60;;
40453;SDS011;26160;51.858;4.398;2023-08-24T14:27:06;17.88;;;11.48;;
40453;SDS011;26160;51.858;4.398;2023-08-24T14:29:32;16.45;;;10.02;;
40453;SDS011;26160;51.858;4.398;2023-08-24T14:31:59;17.80;;;8.98;;
40453;SDS011;26160;51.858;4.398;2023-08-24T14:34:25;15.18;;;9.13;;
40453;SDS011;26160;51.858;4.398;2023-08-24T14:36:51;15.02;;;7.05;;
40453;SDS011;26160;51.858;4.398;2023-08-24T14:39:17;12.02;;;6.80;;
40453;SDS011;26160;51.858;4.398;2023-08-24T14:41:44;5.50;;;4.05;;
40453;SDS011;26160;51.858;4.398;2023-08-24T14:44:10;8.07;;;3.30;;
40453;SDS011;26160;51.858;4.398;2023-08-24T14:46:37;8.20;;;3.63;;